Timken, Kansas
Current Conditions -  °F | °C
As of 10:35 AM on Thursday 23 Oct 2014 (Local Time) from KGBD Reporting Station
Overcast Overcast  
Wind Chill: 61°   Ceiling: 2700
Heat Index: 61°   Visibility: 8mi
Dew Point: 57°   Wind: 7mph
Humidity: 88%   Direction: 210°SSW
Pressure: 30.12"   Gusts: NA
Location:  38.4163°N, 99.2527°W
Report Text: KGBD 231535Z AUTO 21006KT 8SM OVC027 16/14 A3012 RMK AO1
Loading
Personal Weather Stations






























Interactive Weather Map
Tropical Storm Tracking
New forecast layout! Learn more

10-Day Weather Forecast

Advertisements
Track Severe Weather on mobile